Thunder radar more information blitzortung!


Radar de pluja more information rain snow radar


Visita la nostra xarxa de llocs de meteo:

Template documentation
and downloads

And another site



No particular awareness of the weather is required.    There are no Weather-warnings

Pagina Historial Weather Underground text

Diari Resum Setembre 29, 2017 Unitats:  Imperial    Mètric   Tant
« Previous Dia
SegĂźent Dia »
Diari Setmana Mensual Anual Personalitzada
  Maxima: Minima: Media:
Temperatura: TemperatureC °F 15.5 °F 21.7 °F
Punt de rosada: DewpointC °F 12.8 °F 14.7 °F
Humitat: Humidity % 46 % 65 %
Wind Speed: WindSpeedKMH mph 0.0 mph 5.9 mph
RĂ fegues de vent: WindSpeedGustKMH mph - -
Vent:- - SSW
Pression baro: PressurehPa in 1019.9 in -
Precipitacions: 0.0 in    
Historical Graphs
 
 
Dades de taula per Setembre 29, 2017
Temps Temperatura Punt de rosada Pression baro Vent Wind Speed RĂ fegues de vent Humitat Rainfall Rate (Hourly)
TemperatureC °F DewpointC °F PressurehPa in Calm     Humidity % HourlyPrecipMM in
00:01 17.7 °F 14.0 °F 1026.0 in NNW 1.9 mph 1.9 mph 79 % 0.0 in
00:06 17.7 °F 14.0 °F 1026.0 in Calm     79 % 0.0 in
00:11 17.6 °F 13.9 °F 1026.0 in Calm     79 % 0.0 in
03:55 15.8 °F 14.0 °F 1024.9 in Calm   3.2 mph 89 % 0.0 in
04:05 16.3 °F 14.7 °F 1024.9 in Calm   1.6 mph 90 % 0.0 in
04:15 17.1 °F 15.1 °F 1024.9 in Calm   1.6 mph 88 % 0.0 in
04:25 17.5 °F 15.1 °F 1024.9 in North 1.6 mph 1.6 mph 86 % 0.0 in
04:35 17.6 °F 15.1 °F 1024.9 in NE 1.6 mph 3.2 mph 85 % 0.0 in
04:45 18.3 °F 15.4 °F 1024.9 in Calm   3.2 mph 83 % 0.0 in
04:55 18.8 °F 15.4 °F 1024.9 in NE 1.6 mph 1.6 mph 81 % 0.0 in
05:05 19.0 °F 15.3 °F 1024.9 in Calm   3.2 mph 79 % 0.0 in
05:15 19.1 °F 15.2 °F 1024.9 in ENE 3.2 mph 6.4 mph 78 % 0.0 in
05:25 19.4 °F 15.3 °F 1026.0 in NE 3.2 mph 3.2 mph 77 % 0.0 in
10:27 19.7 °F 15.6 °F 1026.0 in NNE 5.6 mph 5.6 mph 77 % 0.0 in
10:28 19.7 °F 15.6 °F 1026.0 in ENE 5.8 mph 5.8 mph 77 % 0.0 in
10:31 19.6 °F 15.4 °F 1024.9 in NE 5.6 mph 5.6 mph 77 % 0.0 in
10:36 20.1 °F 15.9 °F 1024.9 in NNW 3.7 mph 3.7 mph 77 % 0.0 in
10:41 20.5 °F 16.1 °F 1024.9 in North 7.4 mph 7.4 mph 76 % 0.0 in
10:46 20.6 °F 16.0 °F 1024.9 in NNW 3.9 mph 3.9 mph 75 % 0.0 in
10:51 20.4 °F 15.6 °F 1024.9 in NNE 5.3 mph 5.3 mph 74 % 0.0 in
10:56 20.7 °F 15.9 °F 1024.9 in NE 3.7 mph 3.7 mph 74 % 0.0 in
11:01 20.9 °F 15.9 °F 1024.9 in ENE 3.7 mph 3.7 mph 73 % 0.0 in
11:06 21.2 °F 16.2 °F 1024.9 in NW 5.6 mph 5.6 mph 73 % 0.0 in
11:11 20.8 °F 15.8 °F 1024.9 in South 3.7 mph 3.7 mph 73 % 0.0 in
11:16 21.5 °F 16.2 °F 1024.9 in East 3.7 mph   72 % 0.0 in
11:21 21.9 °F 16.4 °F 1024.9 in SE 3.7 mph 3.7 mph 71 % 0.0 in
11:26 22.0 °F 16.1 °F 1024.9 in SSE 5.6 mph   69 % 0.0 in
11:31 22.4 °F 16.4 °F 1024.9 in SSE 1.9 mph   69 % 0.0 in
11:36 22.6 °F 16.4 °F 1024.9 in NNE 5.6 mph 5.6 mph 68 % 0.0 in
11:41 22.2 °F 15.8 °F 1024.9 in ENE 4.2 mph 4.2 mph 67 % 0.0 in
11:46 22.6 °F 16.4 °F 1024.9 in NNE 3.7 mph 3.7 mph 68 % 0.0 in
11:51 22.8 °F 16.6 °F 1024.9 in WNW 5.6 mph 5.6 mph 68 % 0.0 in
11:56 22.4 °F 16.2 °F 1024.9 in West 5.6 mph 5.6 mph 68 % 0.0 in
12:01 22.9 °F 16.4 °F 1023.9 in NNW 3.7 mph 3.7 mph 67 % 0.0 in
12:06 23.3 °F 16.6 °F 1023.9 in West 5.6 mph 5.6 mph 66 % 0.0 in
12:11 23.9 °F 16.9 °F 1023.9 in SW 5.3 mph 5.3 mph 65 % 0.0 in
12:16 23.7 °F 16.5 °F 1023.9 in West 9.0 mph 9.0 mph 64 % 0.0 in
12:21 24.0 °F 16.5 °F 1023.9 in SSW 3.9 mph 3.9 mph 63 % 0.0 in
12:26 24.1 °F 16.4 °F 1023.9 in SSW 9.3 mph 9.3 mph 62 % 0.0 in
12:31 23.8 °F 16.1 °F 1023.9 in SW 7.4 mph 7.4 mph 62 % 0.0 in
12:36 23.8 °F 15.6 °F 1023.9 in ESE 7.4 mph 7.4 mph 60 % 0.0 in
12:41 24.1 °F 15.6 °F 1023.9 in West 3.7 mph 3.7 mph 59 % 0.0 in
12:46 24.5 °F 15.4 °F 1023.9 in SE 7.4 mph 7.4 mph 57 % 0.0 in
12:51 24.6 °F 15.8 °F 1023.9 in SSW 9.3 mph 9.3 mph 58 % 0.0 in
12:56 24.4 °F 15.3 °F 1023.9 in SW 9.3 mph 9.3 mph 57 % 0.0 in
13:01 24.5 °F 15.2 °F 1023.9 in NW 5.6 mph 5.6 mph 56 % 0.0 in
13:06 24.3 °F 14.7 °F 1023.9 in ESE 5.6 mph 5.6 mph 55 % 0.0 in
13:11 24.9 °F 15.2 °F 1023.9 in SW 3.7 mph 3.7 mph 55 % 0.0 in
13:16 25.6 °F 15.3 °F 1022.9 in SE 5.0 mph 5.0 mph 53 % 0.0 in
13:21 25.4 °F 15.1 °F 1022.9 in ESE 5.6 mph 5.6 mph 53 % 0.0 in
13:26 25.5 °F 15.5 °F 1022.9 in SSW 9.3 mph 9.3 mph 54 % 0.0 in
13:31 26.0 °F 15.4 °F 1022.9 in ESE 5.6 mph 5.6 mph 52 % 0.0 in
13:36 26.1 °F 15.5 °F 1022.9 in WSW 9.3 mph 9.3 mph 52 % 0.0 in
13:41 26.2 °F 14.9 °F 1022.9 in SW 5.6 mph 5.6 mph 50 % 0.0 in
13:46 25.9 °F 14.7 °F 1022.9 in SSE 5.6 mph 5.6 mph 50 % 0.0 in
13:51 25.7 °F 14.2 °F 1022.9 in ESE 3.9 mph 3.9 mph 49 % 0.0 in
13:56 26.4 °F 14.8 °F 1022.9 in WSW 6.1 mph 6.1 mph 49 % 0.0 in
14:01 26.2 °F 14.9 °F 1022.9 in NNE 5.6 mph 5.6 mph 50 % 0.0 in
14:06 26.2 °F 14.9 °F 1022.9 in South 6.9 mph 6.9 mph 50 % 0.0 in
14:11 26.7 °F 15.4 °F 1022.9 in SW 11.1 mph 11.1 mph 50 % 0.0 in
14:16 27.0 °F 15.1 °F 1021.9 in SW 5.6 mph 6.1 mph 48 % 0.0 in
14:21 27.0 °F 14.4 °F 1021.9 in SSE 5.6 mph 5.8 mph 46 % 0.0 in
14:26 27.0 °F 14.4 °F 1021.9 in East 6.9 mph 6.9 mph 46 % 0.0 in
14:31 26.4 °F 14.2 °F 1022.9 in ESE 13.0 mph 13.0 mph 47 % 0.0 in
14:36 26.1 °F 14.6 °F 1022.9 in SSE 7.4 mph 7.4 mph 49 % 0.0 in
14:41 25.7 °F 14.8 °F 1022.9 in ESE 9.3 mph 9.3 mph 51 % 0.0 in
14:46 25.8 °F 14.9 °F 1021.9 in ESE 13.0 mph 13.0 mph 51 % 0.0 in
14:51 25.1 °F 14.3 °F 1021.9 in ENE 9.3 mph 9.3 mph 51 % 0.0 in
14:56 25.0 °F 14.2 °F 1021.9 in SE 10.3 mph 10.3 mph 51 % 0.0 in
15:01 25.1 °F 14.6 °F 1021.9 in East 13.0 mph 13.0 mph 52 % 0.0 in
15:06 24.9 °F 14.7 °F 1021.9 in ENE 4.2 mph 4.2 mph 53 % 0.0 in
15:11 24.7 °F 14.5 °F 1021.9 in ENE 7.4 mph 7.4 mph 53 % 0.0 in
15:16 25.0 °F 14.4 °F 1021.9 in ENE 9.3 mph 9.3 mph 52 % 0.0 in
15:21 25.2 °F 14.9 °F 1021.9 in ESE 9.3 mph 9.3 mph 53 % 0.0 in
15:26 24.6 °F 14.7 °F 1021.9 in ESE 9.3 mph 9.3 mph 54 % 0.0 in
15:31 24.8 °F 14.8 °F 1021.9 in NE 9.5 mph 9.5 mph 54 % 0.0 in
15:36 24.8 °F 14.8 °F 1021.9 in ESE 9.3 mph 9.3 mph 54 % 0.0 in
15:37 24.8 °F 14.8 °F 1021.9 in ESE 10.3 mph 10.3 mph 54 % 0.0 in
15:42 25.0 °F 14.8 °F 1021.9 in ESE 11.1 mph 11.1 mph 53 % 0.0 in
15:47 25.5 °F 15.5 °F 1021.9 in SSW 11.1 mph 11.1 mph 54 % 0.0 in
15:52 25.5 °F 15.2 °F 1021.9 in ENE 7.4 mph 7.4 mph 53 % 0.0 in
15:57 25.6 °F 15.6 °F 1021.9 in SW 7.4 mph 7.4 mph 54 % 0.0 in
15:58 25.8 °F 15.8 °F 1021.9 in SE 8.7 mph 8.7 mph 54 % 0.0 in
16:03 25.3 °F 15.1 °F 1021.9 in NNE 9.3 mph 9.3 mph 53 % 0.0 in
16:08 25.9 °F 15.6 °F 1021.9 in SSE 7.4 mph 7.4 mph 53 % 0.0 in
16:13 26.4 °F 15.8 °F 1021.9 in South 5.6 mph 5.6 mph 52 % 0.0 in
16:18 26.5 °F 15.6 °F 1020.9 in SW 7.4 mph 7.4 mph 51 % 0.0 in
16:23 27.0 °F 16.0 °F 1020.9 in SW 11.9 mph 11.9 mph 51 % 0.0 in
16:28 27.1 °F 15.8 °F 1020.9 in SSW 10.3 mph 10.3 mph 50 % 0.0 in
16:33 27.2 °F 15.6 °F 1021.9 in SW 9.3 mph 9.3 mph 49 % 0.0 in
16:38 26.8 °F 15.5 °F 1021.9 in SSW 13.0 mph 13.0 mph 50 % 0.0 in
16:43 26.9 °F 15.6 °F 1021.9 in SW 10.0 mph 10.0 mph 50 % 0.0 in
16:48 26.8 °F 15.2 °F 1020.9 in SW 13.0 mph 13.0 mph 49 % 0.0 in
16:53 26.8 °F 15.2 °F 1020.9 in SSW 9.3 mph 9.3 mph 49 % 0.0 in
16:58 26.8 °F 15.2 °F 1020.9 in SSW 11.1 mph 11.1 mph 49 % 0.0 in
17:03 26.8 °F 15.2 °F 1020.9 in SW 14.8 mph 14.8 mph 49 % 0.0 in
17:08 26.7 °F 15.1 °F 1020.9 in WSW 11.1 mph 11.1 mph 49 % 0.0 in
17:13 26.8 °F 15.2 °F 1020.9 in West 10.3 mph 10.3 mph 49 % 0.0 in
17:18 26.4 °F 14.8 °F 1019.9 in WSW 9.3 mph 9.3 mph 49 % 0.0 in
17:23 26.2 °F 14.7 °F 1019.9 in SW 9.3 mph 9.3 mph 49 % 0.0 in
17:28 26.6 °F 15.3 °F 1019.9 in SW 6.9 mph 6.9 mph 50 % 0.0 in
17:33 26.2 °F 14.9 °F 1019.9 in SW 9.3 mph 9.3 mph 50 % 0.0 in
17:38 26.1 °F 14.9 °F 1019.9 in WSW 7.4 mph 8.7 mph 50 % 0.0 in
17:43 25.6 °F 14.4 °F 1019.9 in SW 11.1 mph 11.1 mph 50 % 0.0 in
17:48 25.5 °F 14.3 °F 1019.9 in SW 7.6 mph 7.6 mph 50 % 0.0 in
17:53 25.3 °F 14.1 °F 1019.9 in SW 11.1 mph 11.1 mph 50 % 0.0 in
17:58 25.3 °F 14.4 °F 1019.9 in SW 7.9 mph 7.9 mph 51 % 0.0 in
18:03 25.1 °F 14.3 °F 1019.9 in WSW 11.1 mph 11.1 mph 51 % 0.0 in
18:08 25.0 °F 14.2 °F 1019.9 in SW 9.3 mph 9.3 mph 51 % 0.0 in
18:13 24.7 °F 14.2 °F 1019.9 in WSW 9.3 mph 9.3 mph 52 % 0.0 in
18:18 24.6 °F 14.4 °F 1019.9 in WSW 7.4 mph 7.4 mph 53 % 0.0 in
18:23 24.6 °F 14.4 °F 1019.9 in SW 7.4 mph 7.4 mph 53 % 0.0 in
18:28 24.5 °F 14.6 °F 1019.9 in South 10.0 mph 10.0 mph 54 % 0.0 in
18:29 24.4 °F 14.5 °F 1019.9 in SSW 9.3 mph 9.3 mph 54 % 0.0 in
18:34 24.1 °F 14.2 °F 1019.9 in West 14.8 mph 14.8 mph 54 % 0.0 in
18:39 23.9 °F 14.3 °F 1019.9 in SW 7.4 mph 7.4 mph 55 % 0.0 in
18:44 23.6 °F 14.3 °F 1019.9 in SSW 14.8 mph 14.8 mph 56 % 0.0 in
18:49 23.3 °F 14.1 °F 1019.9 in SSW 7.4 mph 7.4 mph 56 % 0.0 in
18:54 23.3 °F 14.3 °F 1019.9 in WSW 9.3 mph 9.3 mph 57 % 0.0 in
18:59 23.0 °F 14.0 °F 1019.9 in SW 14.8 mph 14.8 mph 57 % 0.0 in
19:04 22.7 °F 14.0 °F 1019.9 in SW 9.3 mph 9.3 mph 58 % 0.0 in
19:09 22.5 °F 14.1 °F 1019.9 in SSW 7.4 mph 7.4 mph 59 % 0.0 in
19:14 22.4 °F 14.0 °F 1019.9 in South 13.0 mph 13.0 mph 59 % 0.0 in
19:19 22.2 °F 14.1 °F 1019.9 in SSW 7.4 mph 7.4 mph 60 % 0.0 in
19:24 22.0 °F 13.9 °F 1019.9 in WSW 9.3 mph 9.3 mph 60 % 0.0 in
19:26 21.9 °F 14.1 °F 1019.9 in SW 11.1 mph 11.1 mph 61 % 0.0 in
19:30 18.1 °F 14.4 °F 1022.9 in WSW 1.6 mph 1.6 mph 79 % 0.0 in
19:31 21.8 °F 14.2 °F 1019.9 in WSW 13.0 mph 13.0 mph 62 % 0.0 in
19:36 21.6 °F 14.0 °F 1019.9 in SW 9.3 mph 9.3 mph 62 % 0.0 in
19:40 18.0 °F 14.3 °F 1022.9 in Calm   1.6 mph 79 % 0.0 in
19:41 21.5 °F 14.2 °F 1019.9 in SW 9.3 mph 9.3 mph 63 % 0.0 in
19:46 21.3 °F 13.9 °F 1020.9 in SW 9.3 mph 9.3 mph 63 % 0.0 in
19:50 18.0 °F 14.3 °F 1022.9 in WNW 1.6 mph 3.2 mph 79 % 0.0 in
19:51 21.2 °F 14.1 °F 1020.9 in SW 13.0 mph 13.0 mph 64 % 0.0 in
19:56 21.0 °F 14.2 °F 1020.9 in WSW 7.4 mph 7.4 mph 65 % 0.0 in
20:00 17.8 °F 14.1 °F 1022.9 in West 1.6 mph 3.2 mph 79 % 0.0 in
20:01 20.9 °F 14.1 °F 1020.9 in SW 9.7 mph 9.7 mph 65 % 0.0 in
20:06 20.8 °F 14.2 °F 1020.9 in SW 9.3 mph 9.3 mph 66 % 0.0 in
20:10 17.6 °F 14.1 °F 1021.9 in WSW 1.6 mph 3.2 mph 80 % 0.0 in
20:11 20.7 °F 14.1 °F 1020.9 in SW 9.7 mph 9.7 mph 66 % 0.0 in
20:16 20.6 °F 14.3 °F 1021.9 in SW 11.1 mph 11.1 mph 67 % 0.0 in
20:20 17.6 °F 14.1 °F 1021.9 in West 1.6 mph 3.2 mph 80 % 0.0 in
20:21 20.5 °F 14.2 °F 1021.9 in SW 9.3 mph 9.3 mph 67 % 0.0 in
20:26 20.4 °F 14.3 °F 1021.9 in WSW 10.0 mph 10.0 mph 68 % 0.0 in
20:30 17.5 °F 14.0 °F 1021.9 in West 1.6 mph 3.2 mph 80 % 0.0 in
20:31 20.3 °F 14.4 °F 1020.9 in WSW 7.4 mph 7.4 mph 69 % 0.0 in
20:36 20.2 °F 14.3 °F 1020.9 in SW 9.3 mph 9.3 mph 69 % 0.0 in
20:40 17.5 °F 14.2 °F 1022.9 in WSW 1.6 mph 3.2 mph 81 % 0.0 in
20:41 20.1 °F 14.2 °F 1020.9 in South 7.4 mph 7.4 mph 69 % 0.0 in
20:42 20.1 °F 14.2 °F 1020.9 in SW 7.4 mph 7.4 mph 69 % 0.0 in
20:47 20.0 °F 14.3 °F 1020.9 in SW 4.2 mph 4.2 mph 70 % 0.0 in
20:50 17.5 °F 14.2 °F 1022.9 in Calm   3.2 mph 81 % 0.0 in
20:52 20.0 °F 14.3 °F 1020.9 in WSW 7.6 mph 7.6 mph 70 % 0.0 in
20:57 19.9 °F 14.5 °F 1020.9 in West 6.4 mph 6.4 mph 71 % 0.0 in
21:00 17.4 °F 14.3 °F 1022.9 in Calm   3.2 mph 82 % 0.0 in
21:02 19.8 °F 14.4 °F 1021.9 in WSW 9.3 mph 9.3 mph 71 % 0.0 in
21:07 19.8 °F 14.6 °F 1021.9 in SW 5.6 mph 5.6 mph 72 % 0.0 in
21:10 17.2 °F 14.1 °F 1021.9 in Calm     82 % 0.0 in
21:12 19.7 °F 14.5 °F 1021.9 in SW 3.9 mph 3.9 mph 72 % 0.0 in
21:17 19.6 °F 14.4 °F 1021.9 in SSW 5.6 mph 5.6 mph 72 % 0.0 in
21:20 16.9 °F 14.0 °F 1021.9 in NW 1.6 mph 3.2 mph 83 % 0.0 in
21:22 19.5 °F 14.6 °F 1021.9 in SW 3.7 mph 3.7 mph 73 % 0.0 in
21:27 19.5 °F 14.6 °F 1021.9 in SW 5.6 mph 5.6 mph 73 % 0.0 in
21:30 16.7 °F 13.8 °F 1021.9 in SSW 1.6 mph 1.6 mph 83 % 0.0 in
21:32 19.4 °F 14.4 °F 1021.9 in West 5.6 mph 5.6 mph 73 % 0.0 in
21:37 19.4 °F 14.4 °F 1021.9 in SW 2.3 mph 2.3 mph 73 % 0.0 in
21:40 16.6 °F 13.7 °F 1021.9 in Calm   3.2 mph 83 % 0.0 in
21:42 19.3 °F 14.3 °F 1021.9 in West 3.2 mph 3.2 mph 73 % 0.0 in
21:47 19.3 °F 14.6 °F 1022.9 in SW 3.2 mph 3.2 mph 74 % 0.0 in
21:50 16.7 °F 13.8 °F 1021.9 in West 1.6 mph 3.2 mph 83 % 0.0 in
21:52 19.3 °F 14.6 °F 1022.9 in WSW 5.6 mph 5.6 mph 74 % 0.0 in
21:57 19.2 °F 14.4 °F 1022.9 in SW 3.7 mph 3.7 mph 74 % 0.0 in
22:00 16.5 °F 13.6 °F 1021.9 in Calm   1.6 mph 83 % 0.0 in
22:02 19.2 °F 14.4 °F 1021.9 in WSW 3.7 mph 3.7 mph 74 % 0.0 in
22:07 19.1 °F 14.6 °F 1021.9 in SW 1.9 mph 1.9 mph 75 % 0.0 in
22:12 19.1 °F 14.6 °F 1021.9 in SW 2.3 mph 2.3 mph 75 % 0.0 in
22:17 19.0 °F 14.4 °F 1022.9 in SW 3.7 mph 3.7 mph 75 % 0.0 in
22:20 16.6 °F 13.9 °F 1021.9 in Calm     84 % 0.0 in
22:22 19.0 °F 14.4 °F 1022.9 in WSW 1.9 mph 1.9 mph 75 % 0.0 in
22:27 19.0 °F 14.4 °F 1022.9 in West 3.7 mph 3.7 mph 75 % 0.0 in
22:30 16.3 °F 13.6 °F 1021.9 in Calm   1.6 mph 84 % 0.0 in
22:32 19.0 °F 14.4 °F 1022.9 in WSW 3.7 mph 3.7 mph 75 % 0.0 in
22:37 19.0 °F 14.4 °F 1022.9 in WSW 2.6 mph 2.6 mph 75 % 0.0 in
22:40 16.0 °F 13.3 °F 1021.9 in Calm     84 % 0.0 in
22:42 19.0 °F 14.7 °F 1022.9 in WSW 2.3 mph 2.3 mph 76 % 0.0 in
22:47 18.9 °F 14.8 °F 1022.9 in SW 1.9 mph   77 % 0.0 in
22:52 18.8 °F 14.7 °F 1022.9 in SW 3.7 mph 3.7 mph 77 % 0.0 in
22:57 18.7 °F 14.6 °F 1022.9 in SW 2.6 mph 2.6 mph 77 % 0.0 in
23:00 15.6 °F 12.9 °F 1020.9 in Calm   3.2 mph 84 % 0.0 in
23:02 18.5 °F 14.4 °F 1022.9 in SW 3.7 mph 3.7 mph 77 % 0.0 in
23:07 18.5 °F 14.4 °F 1022.9 in SW 1.9 mph 1.9 mph 77 % 0.0 in
23:10 15.5 °F 12.8 °F 1021.9 in Calm     84 % 0.0 in
23:12 18.4 °F 14.5 °F 1022.9 in Calm     78 % 0.0 in
23:17 18.4 °F 14.5 °F 1022.9 in Calm     78 % 0.0 in
23:20 15.5 °F 13.0 °F 1021.9 in Calm     85 % 0.0 in
23:22 18.3 °F 14.4 °F 1022.9 in SW 1.9 mph 1.9 mph 78 % 0.0 in
23:27 18.3 °F 14.4 °F 1022.9 in SW 2.6 mph   78 % 0.0 in
23:30 15.5 °F 13.0 °F 1021.9 in Calm     85 % 0.0 in
23:32 18.2 °F 14.3 °F 1022.9 in SW 1.9 mph 1.9 mph 78 % 0.0 in
23:37 18.2 °F 14.3 °F 1022.9 in Calm     78 % 0.0 in
23:40 15.6 °F 13.3 °F 1021.9 in Calm     86 % 0.0 in
23:42 18.2 °F 14.3 °F 1022.9 in West 3.7 mph 3.7 mph 78 % 0.0 in
23:47 18.2 °F 14.3 °F 1021.9 in West 3.7 mph 3.7 mph 78 % 0.0 in
23:52 18.2 °F 14.3 °F 1021.9 in West 3.7 mph 3.7 mph 78 % 0.0 in
23:57 18.2 °F 14.3 °F 1021.9 in West 3.7 mph 3.7 mph 78 % 0.0 in
Meteo Sesrovires
Elogis d' Weather Underground - 1.5 mb

Guio original per  Jim McMurry - jmcmurry@mwt.net Adaptat per a la plantilla per  Wim van der Kuil - Leuven-Template.eu

Trobareu la nostra informacio del temps tambe a:

Weather Underground

AWEKAS